sensor_id;sensor_type;location;lat;lon;timestamp;pressure;altitude;pressure_sealevel;temperature;humidity
21300;BME280;10809;49.476;11.016;2024-03-08T00:00:20;98461.16;;;2.95;52.28
21300;BME280;10809;49.476;11.016;2024-03-08T00:02:50;98456.88;;;2.92;52.78
21300;BME280;10809;49.476;11.016;2024-03-08T00:05:21;98454.25;;;2.92;52.43
21300;BME280;10809;49.476;11.016;2024-03-08T00:07:51;98455.16;;;2.90;52.15
21300;BME280;10809;49.476;11.016;2024-03-08T00:10:22;98456.09;;;2.87;52.78
21300;BME280;10809;49.476;11.016;2024-03-08T00:12:52;98445.72;;;2.84;52.63
21300;BME280;10809;49.476;11.016;2024-03-08T00:15:23;98444.03;;;2.82;52.10
21300;BME280;10809;49.476;11.016;2024-03-08T00:17:54;98443.19;;;2.80;52.88
21300;BME280;10809;49.476;11.016;2024-03-08T00:20:24;98438.88;;;2.77;52.09
21300;BME280;10809;49.476;11.016;2024-03-08T00:22:55;98438.06;;;2.75;52.82
21300;BME280;10809;49.476;11.016;2024-03-08T00:25:28;98442.44;;;2.73;52.62
21300;BME280;10809;49.476;11.016;2024-03-08T00:27:58;98439.03;;;2.71;52.35
21300;BME280;10809;49.476;11.016;2024-03-08T00:30:30;98439.94;;;2.69;52.70
21300;BME280;10809;49.476;11.016;2024-03-08T00:33:01;98440.88;;;2.66;52.36
21300;BME280;10809;49.476;11.016;2024-03-08T00:35:31;98434.81;;;2.64;52.18
21300;BME280;10809;49.476;11.016;2024-03-08T00:38:02;98432.25;;;2.61;52.54
21300;BME280;10809;49.476;11.016;2024-03-08T00:40:32;98426.19;;;2.59;52.99
21300;BME280;10809;49.476;11.016;2024-03-08T00:43:03;98437.56;;;2.58;52.45
21300;BME280;10809;49.476;11.016;2024-03-08T00:45:34;98429.75;;;2.57;52.58
21300;BME280;10809;49.476;11.016;2024-03-08T00:48:05;98426.31;;;2.54;52.59
21300;BME280;10809;49.476;11.016;2024-03-08T00:50:36;98422.84;;;2.54;52.89
21300;BME280;10809;49.476;11.016;2024-03-08T00:53:07;98412.44;;;2.53;52.77
21300;BME280;10809;49.476;11.016;2024-03-08T00:55:37;98423.75;;;2.51;52.70
21300;BME280;10809;49.476;11.016;2024-03-08T00:58:08;98422.03;;;2.50;52.63
21300;BME280;10809;49.476;11.016;2024-03-08T01:00:39;98415.97;;;2.48;53.19
21300;BME280;10809;49.476;11.016;2024-03-08T01:03:16;98409.94;;;2.46;52.90
21300;BME280;10809;49.476;11.016;2024-03-08T01:05:46;98408.22;;;2.45;52.66
21300;BME280;10809;49.476;11.016;2024-03-08T01:08:17;98405.66;;;2.42;52.59
21300;BME280;10809;49.476;11.016;2024-03-08T01:10:47;98403.97;;;2.41;52.90
21300;BME280;10809;49.476;11.016;2024-03-08T01:13:18;98397.91;;;2.39;52.79
21300;BME280;10809;49.476;11.016;2024-03-08T01:15:49;98395.31;;;2.38;53.02
21300;BME280;10809;49.476;11.016;2024-03-08T01:18:19;98390.13;;;2.36;53.29
21300;BME280;10809;49.476;11.016;2024-03-08T01:20:50;98385.81;;;2.35;52.99
21300;BME280;10809;49.476;11.016;2024-03-08T01:23:20;98390.19;;;2.33;53.01
21300;BME280;10809;49.476;11.016;2024-03-08T01:25:51;98383.25;;;2.32;53.22
21300;BME280;10809;49.476;11.016;2024-03-08T01:28:26;98383.28;;;2.31;52.88
21300;BME280;10809;49.476;11.016;2024-03-08T01:31:00;98386.81;;;2.30;53.10
21300;BME280;10809;49.476;11.016;2024-03-08T01:33:30;98379.84;;;2.29;53.29
21300;BME280;10809;49.476;11.016;2024-03-08T01:36:02;98378.16;;;2.26;53.13
21300;BME280;10809;49.476;11.016;2024-03-08T01:38:32;98377.28;;;2.26;53.39
21300;BME280;10809;49.476;11.016;2024-03-08T01:41:03;98370.38;;;2.25;52.75
21300;BME280;10809;49.476;11.016;2024-03-08T01:43:34;98368.66;;;2.24;53.13
21300;BME280;10809;49.476;11.016;2024-03-08T01:46:05;98368.69;;;2.22;53.56
21300;BME280;10809;49.476;11.016;2024-03-08T01:48:37;98363.50;;;2.21;53.55
21300;BME280;10809;49.476;11.016;2024-03-08T01:51:08;98373.06;;;2.20;52.90
21300;BME280;10809;49.476;11.016;2024-03-08T01:53:39;98366.16;;;2.19;52.91
21300;BME280;10809;49.476;11.016;2024-03-08T01:56:10;98357.47;;;2.17;53.34
21300;BME280;10809;49.476;11.016;2024-03-08T01:58:43;98358.41;;;2.15;53.00
21300;BME280;10809;49.476;11.016;2024-03-08T02:01:15;98349.72;;;2.14;53.65
21300;BME280;10809;49.476;11.016;2024-03-08T02:03:45;98349.75;;;2.13;53.29
21300;BME280;10809;49.476;11.016;2024-03-08T02:06:16;98352.38;;;2.11;53.32
21300;BME280;10809;49.476;11.016;2024-03-08T02:08:47;98348.03;;;2.10;53.00
21300;BME280;10809;49.476;11.016;2024-03-08T02:11:18;98341.09;;;2.09;52.75
21300;BME280;10809;49.476;11.016;2024-03-08T02:13:50;98344.63;;;2.08;52.94
21300;BME280;10809;49.476;11.016;2024-03-08T02:16:21;98342.03;;;2.07;53.74
21300;BME280;10809;49.476;11.016;2024-03-08T02:18:52;98336.84;;;2.05;53.41
21300;BME280;10809;49.476;11.016;2024-03-08T02:21:23;98342.06;;;2.05;53.78
21300;BME280;10809;49.476;11.016;2024-03-08T02:23:54;98329.09;;;2.02;53.07
21300;BME280;10809;49.476;11.016;2024-03-08T02:26:25;98336.91;;;2.02;53.65
21300;BME280;10809;49.476;11.016;2024-03-08T02:28:55;98328.22;;;2.02;53.42
21300;BME280;10809;49.476;11.016;2024-03-08T02:31:26;98330.84;;;2.00;53.06
21300;BME280;10809;49.476;11.016;2024-03-08T02:33:59;98320.44;;;1.99;53.42
21300;BME280;10809;49.476;11.016;2024-03-08T02:36:30;98318.72;;;1.98;53.53
21300;BME280;10809;49.476;11.016;2024-03-08T02:39:03;98315.28;;;1.96;53.50
21300;BME280;10809;49.476;11.016;2024-03-08T02:41:39;98313.59;;;1.95;53.30
21300;BME280;10809;49.476;11.016;2024-03-08T02:44:09;98308.41;;;1.93;53.20
21300;BME280;10809;49.476;11.016;2024-03-08T02:46:40;98315.38;;;1.91;53.50
21300;BME280;10809;49.476;11.016;2024-03-08T02:49:10;98320.66;;;1.90;52.79
21300;BME280;10809;49.476;11.016;2024-03-08T02:51:41;98318.97;;;1.87;52.95
21300;BME280;10809;49.476;11.016;2024-03-08T02:54:15;98311.16;;;1.86;53.07
21300;BME280;10809;49.476;11.016;2024-03-08T02:56:47;98309.47;;;1.83;53.48
21300;BME280;10809;49.476;11.016;2024-03-08T02:59:20;98311.28;;;1.80;53.48
21300;BME280;10809;49.476;11.016;2024-03-08T03:01:50;98308.72;;;1.78;53.46
21300;BME280;10809;49.476;11.016;2024-03-08T03:04:21;98307.88;;;1.76;53.13
21300;BME280;10809;49.476;11.016;2024-03-08T03:06:51;98305.31;;;1.75;53.46
21300;BME280;10809;49.476;11.016;2024-03-08T03:09:22;98302.69;;;1.75;53.84
21300;BME280;10809;49.476;11.016;2024-03-08T03:11:57;98298.38;;;1.74;53.32
21300;BME280;10809;49.476;11.016;2024-03-08T03:14:31;98301.84;;;1.73;54.01
21300;BME280;10809;49.476;11.016;2024-03-08T03:17:01;98306.28;;;1.71;53.55
21300;BME280;10809;49.476;11.016;2024-03-08T03:19:32;98308.00;;;1.70;53.57
21300;BME280;10809;49.476;11.016;2024-03-08T03:22:03;98294.13;;;1.68;53.64
21300;BME280;10809;49.476;11.016;2024-03-08T03:24:39;98307.19;;;1.67;53.51
21300;BME280;10809;49.476;11.016;2024-03-08T03:27:09;98291.53;;;1.67;53.18
21300;BME280;10809;49.476;11.016;2024-03-08T03:29:43;98293.31;;;1.66;53.70
21300;BME280;10809;49.476;11.016;2024-03-08T03:32:17;98299.41;;;1.65;53.65
21300;BME280;10809;49.476;11.016;2024-03-08T03:34:49;98298.59;;;1.63;53.72
21300;BME280;10809;49.476;11.016;2024-03-08T03:37:23;98293.38;;;1.62;53.83
21300;BME280;10809;49.476;11.016;2024-03-08T03:39:53;98296.88;;;1.61;53.65
21300;BME280;10809;49.476;11.016;2024-03-08T03:42:23;98299.50;;;1.61;53.41
21300;BME280;10809;49.476;11.016;2024-03-08T03:44:55;98290.00;;;1.58;53.29
21300;BME280;10809;49.476;11.016;2024-03-08T03:47:25;98285.66;;;1.57;53.65
21300;BME280;10809;49.476;11.016;2024-03-08T03:49:57;98289.16;;;1.56;53.55
21300;BME280;10809;49.476;11.016;2024-03-08T03:52:32;98286.59;;;1.55;53.69
21300;BME280;10809;49.476;11.016;2024-03-08T03:55:03;98279.66;;;1.54;53.47
21300;BME280;10809;49.476;11.016;2024-03-08T03:57:34;98281.44;;;1.52;53.57
21300;BME280;10809;49.476;11.016;2024-03-08T04:00:07;98277.09;;;1.51;53.90
21300;BME280;10809;49.476;11.016;2024-03-08T04:02:43;98278.88;;;1.49;54.18
21300;BME280;10809;49.476;11.016;2024-03-08T04:05:14;98276.31;;;1.47;53.39
21300;BME280;10809;49.476;11.016;2024-03-08T04:07:45;98282.41;;;1.46;53.65
21300;BME280;10809;49.476;11.016;2024-03-08T04:10:15;98280.69;;;1.45;54.12
21300;BME280;10809;49.476;11.016;2024-03-08T04:12:46;98279.84;;;1.45;53.91
21300;BME280;10809;49.476;11.016;2024-03-08T04:15:17;98279.00;;;1.43;54.08
21300;BME280;10809;49.476;11.016;2024-03-08T04:17:51;98279.06;;;1.40;53.78
21300;BME280;10809;49.476;11.016;2024-03-08T04:20:22;98282.56;;;1.39;53.72
21300;BME280;10809;49.476;11.016;2024-03-08T04:22:59;98274.78;;;1.37;54.15
21300;BME280;10809;49.476;11.016;2024-03-08T04:25:29;98274.81;;;1.36;53.96
21300;BME280;10809;49.476;11.016;2024-03-08T04:28:01;98272.25;;;1.33;54.03
21300;BME280;10809;49.476;11.016;2024-03-08T04:30:31;98263.56;;;1.32;54.02
21300;BME280;10809;49.476;11.016;2024-03-08T04:33:02;98259.25;;;1.31;54.05
21300;BME280;10809;49.476;11.016;2024-03-08T04:35:33;98256.69;;;1.30;54.15
21300;BME280;10809;49.476;11.016;2024-03-08T04:38:04;98253.19;;;1.29;53.88
21300;BME280;10809;49.476;11.016;2024-03-08T04:40:35;98259.34;;;1.27;54.21
21300;BME280;10809;49.476;11.016;2024-03-08T04:43:06;98256.75;;;1.25;53.80
21300;BME280;10809;49.476;11.016;2024-03-08T04:45:38;98248.97;;;1.24;54.05
21300;BME280;10809;49.476;11.016;2024-03-08T04:48:09;98252.44;;;1.23;54.18
21300;BME280;10809;49.476;11.016;2024-03-08T04:50:40;98244.66;;;1.21;53.88
21300;BME280;10809;49.476;11.016;2024-03-08T04:53:10;98252.50;;;1.20;53.96
21300;BME280;10809;49.476;11.016;2024-03-08T04:55:41;98248.19;;;1.19;53.88
21300;BME280;10809;49.476;11.016;2024-03-08T04:58:11;98249.97;;;1.17;53.93
21300;BME280;10809;49.476;11.016;2024-03-08T05:00:41;98249.16;;;1.15;54.31
21300;BME280;10809;49.476;11.016;2024-03-08T05:03:12;98253.50;;;1.14;54.01
21300;BME280;10809;49.476;11.016;2024-03-08T05:05:42;98256.13;;;1.13;54.01
21300;BME280;10809;49.476;11.016;2024-03-08T05:08:13;98250.94;;;1.11;54.45
21300;BME280;10809;49.476;11.016;2024-03-08T05:10:43;98252.69;;;1.11;54.45
21300;BME280;10809;49.476;11.016;2024-03-08T05:13:13;98250.09;;;1.09;54.12
21300;BME280;10809;49.476;11.016;2024-03-08T05:15:44;98249.28;;;1.07;54.12
21300;BME280;10809;49.476;11.016;2024-03-08T05:18:17;98240.63;;;1.05;54.51
21300;BME280;10809;49.476;11.016;2024-03-08T05:20:48;98244.97;;;1.05;54.14
21300;BME280;10809;49.476;11.016;2024-03-08T05:23:18;98239.81;;;1.03;54.53
21300;BME280;10809;49.476;11.016;2024-03-08T05:25:49;98240.66;;;1.04;54.35
21300;BME280;10809;49.476;11.016;2024-03-08T05:28:20;98234.63;;;1.02;54.43
21300;BME280;10809;49.476;11.016;2024-03-08T05:30:51;98231.16;;;1.00;54.17
21300;BME280;10809;49.476;11.016;2024-03-08T05:33:24;98225.13;;;0.99;54.85
21300;BME280;10809;49.476;11.016;2024-03-08T05:35:55;98223.34;;;1.00;54.73
21300;BME280;10809;49.476;11.016;2024-03-08T05:38:26;98221.63;;;0.99;54.27
21300;BME280;10809;49.476;11.016;2024-03-08T05:40:56;98222.53;;;0.98;54.29
21300;BME280;10809;49.476;11.016;2024-03-08T05:43:30;98220.78;;;0.98;54.64
21300;BME280;10809;49.476;11.016;2024-03-08T05:46:00;98221.66;;;0.97;54.76
21300;BME280;10809;49.476;11.016;2024-03-08T05:48:31;98217.34;;;0.96;54.68
21300;BME280;10809;49.476;11.016;2024-03-08T05:51:04;98220.81;;;0.97;54.42
21300;BME280;10809;49.476;11.016;2024-03-08T05:53:35;98219.09;;;0.96;54.39
21300;BME280;10809;49.476;11.016;2024-03-08T05:56:06;98217.34;;;0.96;54.86
21300;BME280;10809;49.476;11.016;2024-03-08T05:58:42;98215.63;;;0.95;54.98
21300;BME280;10809;49.476;11.016;2024-03-08T06:01:13;98212.16;;;0.96;54.75
21300;BME280;10809;49.476;11.016;2024-03-08T06:03:44;98218.19;;;0.97;54.55
21300;BME280;10809;49.476;11.016;2024-03-08T06:06:15;98219.97;;;0.96;54.34
21300;BME280;10809;49.476;11.016;2024-03-08T06:08:46;98220.81;;;0.97;54.85
21300;BME280;10809;49.476;11.016;2024-03-08T06:11:20;98218.19;;;0.97;55.08
21300;BME280;10809;49.476;11.016;2024-03-08T06:13:50;98219.06;;;0.97;54.67
21300;BME280;10809;49.476;11.016;2024-03-08T06:16:21;98215.56;;;0.98;54.91
21300;BME280;10809;49.476;11.016;2024-03-08T06:18:51;98210.31;;;1.00;54.85
21300;BME280;10809;49.476;11.016;2024-03-08T06:21:22;98212.94;;;1.00;54.64
21300;BME280;10809;49.476;11.016;2024-03-08T06:23:59;98213.78;;;1.00;55.15
21300;BME280;10809;49.476;11.016;2024-03-08T06:26:29;98211.16;;;1.02;54.91
21300;BME280;10809;49.476;11.016;2024-03-08T06:29:00;98214.59;;;1.04;55.37
21300;BME280;10809;49.476;11.016;2024-03-08T06:31:30;98201.53;;;1.05;55.00
21300;BME280;10809;49.476;11.016;2024-03-08T06:34:00;98194.50;;;1.09;54.88
21300;BME280;10809;49.476;11.016;2024-03-08T06:36:31;98197.94;;;1.11;55.51
21300;BME280;10809;49.476;11.016;2024-03-08T06:39:02;98197.91;;;1.12;54.89
21300;BME280;10809;49.476;11.016;2024-03-08T06:41:39;98204.88;;;1.13;55.30
21300;BME280;10809;49.476;11.016;2024-03-08T06:44:09;98209.16;;;1.16;55.17
21300;BME280;10809;49.476;11.016;2024-03-08T06:46:43;98206.47;;;1.19;55.04
21300;BME280;10809;49.476;11.016;2024-03-08T06:49:14;98202.09;;;1.21;55.17
21300;BME280;10809;49.476;11.016;2024-03-08T06:51:45;98195.97;;;1.23;55.28
21300;BME280;10809;49.476;11.016;2024-03-08T06:54:16;98196.78;;;1.25;55.36
21300;BME280;10809;49.476;11.016;2024-03-08T06:56:46;98201.06;;;1.28;55.40
21300;BME280;10809;49.476;11.016;2024-03-08T06:59:26;98202.75;;;1.30;55.39
21300;BME280;10809;49.476;11.016;2024-03-08T07:01:56;98195.72;;;1.34;55.27
21300;BME280;10809;49.476;11.016;2024-03-08T07:04:27;98196.56;;;1.36;55.40
21300;BME280;10809;49.476;11.016;2024-03-08T07:06:59;98206.03;;;1.40;55.58
21300;BME280;10809;49.476;11.016;2024-03-08T07:09:32;98192.03;;;1.44;55.57
21300;BME280;10809;49.476;11.016;2024-03-08T07:12:03;98194.56;;;1.47;55.66
21300;BME280;10809;49.476;11.016;2024-03-08T07:14:34;98191.03;;;1.51;55.90
21300;BME280;10809;49.476;11.016;2024-03-08T07:17:10;98197.84;;;1.56;55.38
21300;BME280;10809;49.476;11.016;2024-03-08T07:19:40;98189.91;;;1.61;55.74
21300;BME280;10809;49.476;11.016;2024-03-08T07:22:10;98189.81;;;1.65;55.89
21300;BME280;10809;49.476;11.016;2024-03-08T07:24:41;98187.84;;;1.76;56.88
21300;BME280;10809;49.476;11.016;2024-03-08T07:27:51;98184.50;;;2.06;57.76
21300;BME280;10809;49.476;11.016;2024-03-08T07:30:24;98185.38;;;2.42;59.09
21300;BME280;10809;49.476;11.016;2024-03-08T07:33:23;98179.75;;;2.91;59.69
21300;BME280;10809;49.476;11.016;2024-03-08T07:35:54;98179.41;;;3.33;60.56
21300;BME280;10809;49.476;11.016;2024-03-08T07:38:24;98168.47;;;3.77;60.60
21300;BME280;10809;49.476;11.016;2024-03-08T07:40:55;98160.94;;;4.20;60.41
21300;BME280;10809;49.476;11.016;2024-03-08T07:43:27;98156.03;;;4.62;60.26
21300;BME280;10809;49.476;11.016;2024-03-08T07:45:57;98154.69;;;5.00;59.22
21300;BME280;10809;49.476;11.016;2024-03-08T07:48:31;98154.34;;;5.33;59.26
21300;BME280;10809;49.476;11.016;2024-03-08T07:51:02;98153.19;;;5.63;59.01
21300;BME280;10809;49.476;11.016;2024-03-08T07:53:33;98145.91;;;5.93;58.73
21300;BME280;10809;49.476;11.016;2024-03-08T07:56:04;98136.97;;;6.19;58.16
21300;BME280;10809;49.476;11.016;2024-03-08T07:58:45;98149.91;;;6.45;57.64
21300;BME280;10809;49.476;11.016;2024-03-08T08:01:25;98136.63;;;6.68;57.69
21300;BME280;10809;49.476;11.016;2024-03-08T08:03:56;98138.28;;;6.90;57.91
21300;BME280;10809;49.476;11.016;2024-03-08T08:06:27;98132.94;;;7.12;57.56
21300;BME280;10809;49.476;11.016;2024-03-08T08:08:57;98123.22;;;7.32;57.47
21300;BME280;10809;49.476;11.016;2024-03-08T08:11:28;98125.81;;;7.52;57.47
21300;BME280;10809;49.476;11.016;2024-03-08T08:13:59;98119.59;;;7.72;57.04
21300;BME280;10809;49.476;11.016;2024-03-08T08:16:29;98126.63;;;7.90;57.11
21300;BME280;10809;49.476;11.016;2024-03-08T08:19:00;98116.97;;;8.08;56.84
21300;BME280;10809;49.476;11.016;2024-03-08T08:21:30;98111.09;;;8.20;56.27
21300;BME280;10809;49.476;11.016;2024-03-08T08:24:01;98111.28;;;8.34;56.22
21300;BME280;10809;49.476;11.016;2024-03-08T08:26:33;98110.81;;;8.43;56.08
21300;BME280;10809;49.476;11.016;2024-03-08T08:29:04;98100.66;;;8.52;55.74
21300;BME280;10809;49.476;11.016;2024-03-08T08:31:36;98103.06;;;8.57;54.81
21300;BME280;10809;49.476;11.016;2024-03-08T08:34:09;98098.66;;;8.57;55.25
21300;BME280;10809;49.476;11.016;2024-03-08T08:36:39;98095.06;;;8.58;54.85
21300;BME280;10809;49.476;11.016;2024-03-08T08:39:10;98089.88;;;8.57;54.75
21300;BME280;10809;49.476;11.016;2024-03-08T08:41:43;98086.44;;;8.55;54.61
21300;BME280;10809;49.476;11.016;2024-03-08T08:44:14;98087.47;;;8.52;54.41
21300;BME280;10809;49.476;11.016;2024-03-08T08:46:45;98083.13;;;8.51;54.35
21300;BME280;10809;49.476;11.016;2024-03-08T08:49:15;98077.94;;;8.50;54.66
21300;BME280;10809;49.476;11.016;2024-03-08T08:51:50;98076.06;;;8.52;54.45
21300;BME280;10809;49.476;11.016;2024-03-08T08:54:21;98076.91;;;8.52;54.08
21300;BME280;10809;49.476;11.016;2024-03-08T08:56:52;98070.69;;;8.53;54.10
21300;BME280;10809;49.476;11.016;2024-03-08T08:59:23;98071.50;;;8.55;53.67
21300;BME280;10809;49.476;11.016;2024-03-08T09:01:55;98058.28;;;8.55;53.53
21300;BME280;10809;49.476;11.016;2024-03-08T09:04:25;98055.66;;;8.55;52.98
21300;BME280;10809;49.476;11.016;2024-03-08T09:06:56;98055.81;;;8.52;52.70
21300;BME280;10809;49.476;11.016;2024-03-08T09:09:27;98051.63;;;8.48;52.47
21300;BME280;10809;49.476;11.016;2024-03-08T09:11:57;98047.59;;;8.41;52.52
21300;BME280;10809;49.476;11.016;2024-03-08T09:14:28;98040.94;;;8.34;52.31
21300;BME280;10809;49.476;11.016;2024-03-08T09:16:58;98050.84;;;8.29;52.51
21300;BME280;10809;49.476;11.016;2024-03-08T09:19:29;98037.97;;;8.23;52.50
21300;BME280;10809;49.476;11.016;2024-03-08T09:21:59;98047.97;;;8.17;51.96
21300;BME280;10809;49.476;11.016;2024-03-08T09:24:29;98039.53;;;8.10;51.68
21300;BME280;10809;49.476;11.016;2024-03-08T09:27:01;98042.47;;;8.04;51.63
21300;BME280;10809;49.476;11.016;2024-03-08T09:29:31;98029.75;;;7.95;51.66
21300;BME280;10809;49.476;11.016;2024-03-08T09:32:02;98039.81;;;7.87;51.65
21300;BME280;10809;49.476;11.016;2024-03-08T09:34:33;98030.56;;;7.78;51.35
21300;BME280;10809;49.476;11.016;2024-03-08T09:37:03;98027.53;;;7.69;51.01
21300;BME280;10809;49.476;11.016;2024-03-08T09:39:34;98020.06;;;7.60;51.12
21300;BME280;10809;49.476;11.016;2024-03-08T09:42:05;98023.84;;;7.54;51.26
21300;BME280;10809;49.476;11.016;2024-03-08T09:44:36;98017.16;;;7.47;51.29
21300;BME280;10809;49.476;11.016;2024-03-08T09:47:08;98023.59;;;7.42;51.22
21300;BME280;10809;49.476;11.016;2024-03-08T09:49:40;98030.78;;;7.38;51.10
21300;BME280;10809;49.476;11.016;2024-03-08T09:52:11;98024.84;;;7.33;50.95
21300;BME280;10809;49.476;11.016;2024-03-08T09:54:42;98025.00;;;7.30;50.67
21300;BME280;10809;49.476;11.016;2024-03-08T09:57:14;98018.97;;;7.28;51.03
21300;BME280;10809;49.476;11.016;2024-03-08T09:59:45;98022.44;;;7.29;51.26
21300;BME280;10809;49.476;11.016;2024-03-08T10:02:18;98020.75;;;7.28;50.83
21300;BME280;10809;49.476;11.016;2024-03-08T10:04:48;98009.34;;;7.27;50.77
21300;BME280;10809;49.476;11.016;2024-03-08T10:07:19;98003.25;;;7.27;50.73
21300;BME280;10809;49.476;11.016;2024-03-08T10:09:51;97997.91;;;7.28;51.14
21300;BME280;10809;49.476;11.016;2024-03-08T10:12:24;97995.13;;;7.31;51.38
21300;BME280;10809;49.476;11.016;2024-03-08T10:15:00;97994.06;;;7.35;51.51
21300;BME280;10809;49.476;11.016;2024-03-08T10:17:31;97991.13;;;7.41;51.45
21300;BME280;10809;49.476;11.016;2024-03-08T10:20:03;97983.88;;;7.46;51.63
21300;BME280;10809;49.476;11.016;2024-03-08T10:22:35;97981.63;;;7.56;51.71
21300;BME280;10809;49.476;11.016;2024-03-08T10:25:06;97985.66;;;7.63;51.70
21300;BME280;10809;49.476;11.016;2024-03-08T10:27:40;97979.94;;;7.72;51.67
21300;BME280;10809;49.476;11.016;2024-03-08T10:30:15;97976.00;;;7.80;51.45
21300;BME280;10809;49.476;11.016;2024-03-08T10:32:50;97974.00;;;7.86;51.14
21300;BME280;10809;49.476;11.016;2024-03-08T10:35:22;97975.38;;;7.93;50.54
21300;BME280;10809;49.476;11.016;2024-03-08T10:37:54;97973.38;;;7.98;50.95
21300;BME280;10809;49.476;11.016;2024-03-08T10:40:29;97972.28;;;8.02;50.61
21300;BME280;10809;49.476;11.016;2024-03-08T10:43:00;97968.56;;;8.06;50.57
21300;BME280;10809;49.476;11.016;2024-03-08T10:45:34;97967.47;;;8.10;50.39
21300;BME280;10809;49.476;11.016;2024-03-08T10:48:26;97960.19;;;8.15;50.89
21300;BME280;10809;49.476;11.016;2024-03-08T10:51:07;97954.75;;;8.18;50.54
21300;BME280;10809;49.476;11.016;2024-03-08T10:53:42;97962.44;;;8.22;50.51
21300;BME280;10809;49.476;11.016;2024-03-08T10:56:14;97955.13;;;8.27;50.10
21300;BME280;10809;49.476;11.016;2024-03-08T10:58:48;97950.53;;;8.31;49.92
21300;BME280;10809;49.476;11.016;2024-03-08T11:01:20;97955.66;;;8.34;50.11
21300;BME280;10809;49.476;11.016;2024-03-08T11:03:51;97938.75;;;8.38;49.49
21300;BME280;10809;49.476;11.016;2024-03-08T11:06:50;97942.94;;;8.42;48.60
21300;BME280;10809;49.476;11.016;2024-03-08T11:09:35;97931.19;;;8.47;49.34
21300;BME280;10809;49.476;11.016;2024-03-08T11:12:20;97923.97;;;8.51;49.43
21300;BME280;10809;49.476;11.016;2024-03-08T11:14:52;97924.59;;;8.56;49.69
21300;BME280;10809;49.476;11.016;2024-03-08T11:17:39;97917.25;;;8.61;49.57
21300;BME280;10809;49.476;11.016;2024-03-08T11:23:00;97901.66;;;8.73;49.59
21300;BME280;10809;49.476;11.016;2024-03-08T11:25:35;97907.44;;;8.80;49.33
21300;BME280;10809;49.476;11.016;2024-03-08T11:33:40;97887.94;;;8.98;48.53
21300;BME280;10809;49.476;11.016;2024-03-08T11:36:21;97882.41;;;9.02;48.71
21300;BME280;10809;49.476;11.016;2024-03-08T11:38:57;97884.78;;;9.07;48.06
21300;BME280;10809;49.476;11.016;2024-03-08T11:41:27;97876.59;;;9.11;48.51
21300;BME280;10809;49.476;11.016;2024-03-08T11:44:04;97873.72;;;9.16;48.60
21300;BME280;10809;49.476;11.016;2024-03-08T11:46:38;97873.34;;;9.22;48.76
21300;BME280;10809;49.476;11.016;2024-03-08T11:49:20;97869.41;;;9.29;48.49
21300;BME280;10809;49.476;11.016;2024-03-08T11:51:53;97863.81;;;9.35;48.76
21300;BME280;10809;49.476;11.016;2024-03-08T11:54:24;97858.91;;;9.43;48.94
21300;BME280;10809;49.476;11.016;2024-03-08T11:56:55;97830.34;;;9.49;48.89
21300;BME280;10809;49.476;11.016;2024-03-08T11:59:30;97842.25;;;9.56;48.61
21300;BME280;10809;49.476;11.016;2024-03-08T12:02:03;97840.00;;;9.65;48.50
21300;BME280;10809;49.476;11.016;2024-03-08T12:04:43;97843.97;;;9.72;48.28
21300;BME280;10809;49.476;11.016;2024-03-08T12:07:16;97835.69;;;9.78;48.06
21300;BME280;10809;49.476;11.016;2024-03-08T12:10:21;97807.09;;;9.84;48.54
21300;BME280;10809;49.476;11.016;2024-03-08T12:12:53;97816.38;;;9.91;48.00
21300;BME280;10809;49.476;11.016;2024-03-08T12:15:24;97816.00;;;9.97;47.93
21300;BME280;10809;49.476;11.016;2024-03-08T12:17:56;97815.66;;;10.03;47.83
21300;BME280;10809;49.476;11.016;2024-03-08T12:20:27;97816.19;;;10.08;47.70
21300;BME280;10809;49.476;11.016;2024-03-08T12:23:02;97806.19;;;10.13;47.82
21300;BME280;10809;49.476;11.016;2024-03-08T12:25:35;97815.63;;;10.17;46.84
21300;BME280;10809;49.476;11.016;2024-03-08T12:28:15;97803.94;;;10.21;46.90
21300;BME280;10809;49.476;11.016;2024-03-08T12:30:50;97806.38;;;10.24;46.45
21300;BME280;10809;49.476;11.016;2024-03-08T12:33:26;97803.56;;;10.27;46.41
21300;BME280;10809;49.476;11.016;2024-03-08T12:35:57;97798.91;;;10.31;46.82
21300;BME280;10809;49.476;11.016;2024-03-08T12:38:28;97800.34;;;10.36;47.06
21300;BME280;10809;49.476;11.016;2024-03-08T12:41:01;97788.50;;;10.42;47.11
21300;BME280;10809;49.476;11.016;2024-03-08T12:43:32;97781.13;;;10.47;47.08
21300;BME280;10809;49.476;11.016;2024-03-08T12:46:04;97777.22;;;10.52;46.68
21300;BME280;10809;49.476;11.016;2024-03-08T12:48:39;97773.34;;;10.58;46.49
21300;BME280;10809;49.476;11.016;2024-03-08T12:51:10;97778.34;;;10.62;46.31
21300;BME280;10809;49.476;11.016;2024-03-08T12:53:45;97767.56;;;10.65;46.29
21300;BME280;10809;49.476;11.016;2024-03-08T12:56:32;97762.91;;;10.69;45.67
21300;BME280;10809;49.476;11.016;2024-03-08T12:59:10;97757.31;;;10.73;46.24
21300;BME280;10809;49.476;11.016;2024-03-08T13:01:46;97753.53;;;10.77;46.38
21300;BME280;10809;49.476;11.016;2024-03-08T13:04:17;97741.03;;;10.79;45.54
21300;BME280;10809;49.476;11.016;2024-03-08T13:06:49;97751.22;;;10.85;45.99
21300;BME280;10809;49.476;11.016;2024-03-08T13:09:20;97746.47;;;10.90;45.92
21300;BME280;10809;49.476;11.016;2024-03-08T13:11:50;97741.72;;;10.95;45.95
21300;BME280;10809;49.476;11.016;2024-03-08T13:14:21;97743.13;;;11.01;46.13
21300;BME280;10809;49.476;11.016;2024-03-08T13:16:52;97732.09;;;11.07;46.19
21300;BME280;10809;49.476;11.016;2024-03-08T13:19:22;97737.97;;;11.12;46.28
21300;BME280;10809;49.476;11.016;2024-03-08T13:21:53;97734.03;;;11.17;45.64
21300;BME280;10809;49.476;11.016;2024-03-08T13:24:30;97724.94;;;11.21;45.60
21300;BME280;10809;49.476;11.016;2024-03-08T13:27:04;97717.75;;;11.23;44.51
21300;BME280;10809;49.476;11.016;2024-03-08T13:29:47;97715.88;;;11.25;44.57
21300;BME280;10809;49.476;11.016;2024-03-08T13:32:24;97713.00;;;11.28;44.84
21300;BME280;10809;49.476;11.016;2024-03-08T13:34:56;97706.75;;;11.29;44.84